sensor_id;sensor_type;location;lat;lon;timestamp;temperature;humidity
4054;DHT22;2042;47.956;9.222;2023-04-06T00:08:39;-3.10;1.00
4054;DHT22;2042;47.956;9.222;2023-04-06T00:11:06;-3.20;1.00
4054;DHT22;2042;47.956;9.222;2023-04-06T00:13:32;-3.20;1.00
4054;DHT22;2042;47.956;9.222;2023-04-06T00:15:58;-3.30;1.00
4054;DHT22;2042;47.956;9.222;2023-04-06T00:18:23;-3.40;1.00
4054;DHT22;2042;47.956;9.222;2023-04-06T00:20:49;-3.50;1.00
4054;DHT22;2042;47.956;9.222;2023-04-06T00:23:16;-3.50;1.00
4054;DHT22;2042;47.956;9.222;2023-04-06T00:25:42;-3.60;1.00
4054;DHT22;2042;47.956;9.222;2023-04-06T00:28:08;-3.70;1.00
4054;DHT22;2042;47.956;9.222;2023-04-06T00:30:34;-3.80;1.00
4054;DHT22;2042;47.956;9.222;2023-04-06T00:33:00;-3.80;1.00
4054;DHT22;2042;47.956;9.222;2023-04-06T00:35:26;-3.90;1.00
4054;DHT22;2042;47.956;9.222;2023-04-06T00:37:52;-3.90;1.00
4054;DHT22;2042;47.956;9.222;2023-04-06T00:40:19;-3.90;1.00
4054;DHT22;2042;47.956;9.222;2023-04-06T00:42:45;-3.80;1.00
4054;DHT22;2042;47.956;9.222;2023-04-06T00:45:11;-3.70;1.00
4054;DHT22;2042;47.956;9.222;2023-04-06T00:47:38;-3.60;1.00
4054;DHT22;2042;47.956;9.222;2023-04-06T00:50:05;-3.70;1.00
4054;DHT22;2042;47.956;9.222;2023-04-06T00:52:34;-3.80;1.00
4054;DHT22;2042;47.956;9.222;2023-04-06T00:55:01;-3.90;1.00
4054;DHT22;2042;47.956;9.222;2023-04-06T00:57:28;-3.90;1.00
4054;DHT22;2042;47.956;9.222;2023-04-06T00:59:53;-3.90;1.00
4054;DHT22;2042;47.956;9.222;2023-04-06T01:02:19;-3.90;1.00
4054;DHT22;2042;47.956;9.222;2023-04-06T01:04:45;-3.90;1.00
4054;DHT22;2042;47.956;9.222;2023-04-06T01:07:11;-4.00;1.00
4054;DHT22;2042;47.956;9.222;2023-04-06T01:09:38;-4.10;1.00
4054;DHT22;2042;47.956;9.222;2023-04-06T01:12:07;-4.20;1.00
4054;DHT22;2042;47.956;9.222;2023-04-06T01:14:33;-4.10;1.00
4054;DHT22;2042;47.956;9.222;2023-04-06T01:17:00;-4.00;1.00
4054;DHT22;2042;47.956;9.222;2023-04-06T01:19:26;-3.90;1.00
4054;DHT22;2042;47.956;9.222;2023-04-06T01:21:53;-3.80;1.00
4054;DHT22;2042;47.956;9.222;2023-04-06T01:24:20;-3.80;1.00
4054;DHT22;2042;47.956;9.222;2023-04-06T01:26:46;-3.80;1.00
4054;DHT22;2042;47.956;9.222;2023-04-06T01:29:12;-3.80;1.00
4054;DHT22;2042;47.956;9.222;2023-04-06T01:31:39;-3.80;1.00
4054;DHT22;2042;47.956;9.222;2023-04-06T01:34:06;-3.80;1.00
4054;DHT22;2042;47.956;9.222;2023-04-06T01:36:31;-3.90;1.00
4054;DHT22;2042;47.956;9.222;2023-04-06T01:38:57;-4.00;1.00
4054;DHT22;2042;47.956;9.222;2023-04-06T01:41:23;-4.10;1.00
4054;DHT22;2042;47.956;9.222;2023-04-06T01:43:50;-4.10;1.00
4054;DHT22;2042;47.956;9.222;2023-04-06T01:46:20;-4.20;1.00
4054;DHT22;2042;47.956;9.222;2023-04-06T01:48:55;-4.30;1.00
4054;DHT22;2042;47.956;9.222;2023-04-06T01:51:20;-4.40;1.00
4054;DHT22;2042;47.956;9.222;2023-04-06T01:53:46;-4.50;1.00
4054;DHT22;2042;47.956;9.222;2023-04-06T01:56:14;-4.50;1.00
4054;DHT22;2042;47.956;9.222;2023-04-06T01:58:40;-4.60;1.00
4054;DHT22;2042;47.956;9.222;2023-04-06T02:01:06;-4.70;1.00
4054;DHT22;2042;47.956;9.222;2023-04-06T02:03:32;-4.80;1.00
4054;DHT22;2042;47.956;9.222;2023-04-06T02:05:58;-4.80;1.00
4054;DHT22;2042;47.956;9.222;2023-04-06T02:08:24;-4.80;1.00
4054;DHT22;2042;47.956;9.222;2023-04-06T02:10:49;-4.80;1.00
4054;DHT22;2042;47.956;9.222;2023-04-06T02:13:15;-4.80;1.00
4054;DHT22;2042;47.956;9.222;2023-04-06T02:15:41;-4.80;1.00
4054;DHT22;2042;47.956;9.222;2023-04-06T02:18:09;-4.70;1.00
4054;DHT22;2042;47.956;9.222;2023-04-06T02:20:35;-4.70;1.00
4054;DHT22;2042;47.956;9.222;2023-04-06T02:23:01;-4.80;1.00
4054;DHT22;2042;47.956;9.222;2023-04-06T02:25:26;-4.90;1.00
4054;DHT22;2042;47.956;9.222;2023-04-06T02:27:57;-4.90;1.00
4054;DHT22;2042;47.956;9.222;2023-04-06T02:30:25;-4.90;1.00
4054;DHT22;2042;47.956;9.222;2023-04-06T02:32:53;-4.80;1.00
4054;DHT22;2042;47.956;9.222;2023-04-06T02:35:19;-4.80;1.00
4054;DHT22;2042;47.956;9.222;2023-04-06T02:37:45;-4.90;1.00
4054;DHT22;2042;47.956;9.222;2023-04-06T02:40:11;-4.90;1.00
4054;DHT22;2042;47.956;9.222;2023-04-06T02:42:37;-5.00;1.00
4054;DHT22;2042;47.956;9.222;2023-04-06T02:45:05;-5.00;1.00
4054;DHT22;2042;47.956;9.222;2023-04-06T02:47:32;-5.00;1.00
4054;DHT22;2042;47.956;9.222;2023-04-06T02:49:58;-5.00;1.00
4054;DHT22;2042;47.956;9.222;2023-04-06T02:52:23;-5.00;1.00
4054;DHT22;2042;47.956;9.222;2023-04-06T02:54:49;-5.10;1.00
4054;DHT22;2042;47.956;9.222;2023-04-06T02:57:16;-5.10;1.00
4054;DHT22;2042;47.956;9.222;2023-04-06T02:59:42;-5.00;1.00
4054;DHT22;2042;47.956;9.222;2023-04-06T03:02:08;-5.00;1.00
4054;DHT22;2042;47.956;9.222;2023-04-06T03:04:35;-5.00;1.00
4054;DHT22;2042;47.956;9.222;2023-04-06T03:07:02;-5.00;1.00
4054;DHT22;2042;47.956;9.222;2023-04-06T03:09:27;-5.00;1.00
4054;DHT22;2042;47.956;9.222;2023-04-06T03:11:53;-5.10;1.00
4054;DHT22;2042;47.956;9.222;2023-04-06T03:14:20;-5.10;1.00
4054;DHT22;2042;47.956;9.222;2023-04-06T03:16:48;-5.10;1.00
4054;DHT22;2042;47.956;9.222;2023-04-06T03:19:14;-5.20;1.00
4054;DHT22;2042;47.956;9.222;2023-04-06T03:21:40;-5.30;1.00
4054;DHT22;2042;47.956;9.222;2023-04-06T03:24:07;-5.30;1.00
4054;DHT22;2042;47.956;9.222;2023-04-06T03:26:33;-5.40;1.00
4054;DHT22;2042;47.956;9.222;2023-04-06T03:28:59;-5.40;1.00
4054;DHT22;2042;47.956;9.222;2023-04-06T03:31:26;-5.40;1.00
4054;DHT22;2042;47.956;9.222;2023-04-06T03:33:54;-5.40;1.00
4054;DHT22;2042;47.956;9.222;2023-04-06T03:36:19;-5.40;1.00
4054;DHT22;2042;47.956;9.222;2023-04-06T03:38:45;-5.40;1.00
4054;DHT22;2042;47.956;9.222;2023-04-06T03:41:11;-5.30;1.00
4054;DHT22;2042;47.956;9.222;2023-04-06T03:43:37;-5.30;1.00
4054;DHT22;2042;47.956;9.222;2023-04-06T03:46:03;-5.30;1.00
4054;DHT22;2042;47.956;9.222;2023-04-06T03:48:29;-5.40;1.00
4054;DHT22;2042;47.956;9.222;2023-04-06T03:50:55;-5.50;1.00
4054;DHT22;2042;47.956;9.222;2023-04-06T03:53:21;-5.60;1.00
4054;DHT22;2042;47.956;9.222;2023-04-06T03:55:47;-5.60;1.00
4054;DHT22;2042;47.956;9.222;2023-04-06T03:58:14;-5.70;1.00
4054;DHT22;2042;47.956;9.222;2023-04-06T04:00:40;-5.70;1.00
4054;DHT22;2042;47.956;9.222;2023-04-06T04:03:06;-5.70;1.00
4054;DHT22;2042;47.956;9.222;2023-04-06T04:05:31;-5.80;1.00
4054;DHT22;2042;47.956;9.222;2023-04-06T04:08:04;-5.80;1.00
4054;DHT22;2042;47.956;9.222;2023-04-06T04:10:30;-5.70;1.00
4054;DHT22;2042;47.956;9.222;2023-04-06T04:12:55;-5.60;1.00
4054;DHT22;2042;47.956;9.222;2023-04-06T04:15:21;-5.60;1.00
4054;DHT22;2042;47.956;9.222;2023-04-06T04:17:47;-5.60;1.00
4054;DHT22;2042;47.956;9.222;2023-04-06T04:20:15;-5.60;1.00
4054;DHT22;2042;47.956;9.222;2023-04-06T04:22:41;-5.70;1.00
4054;DHT22;2042;47.956;9.222;2023-04-06T04:25:09;-5.80;1.00
4054;DHT22;2042;47.956;9.222;2023-04-06T04:27:38;-5.80;1.00
4054;DHT22;2042;47.956;9.222;2023-04-06T04:30:05;-5.90;1.00
4054;DHT22;2042;47.956;9.222;2023-04-06T04:32:31;-5.90;1.00
4054;DHT22;2042;47.956;9.222;2023-04-06T04:34:57;-5.90;1.00
4054;DHT22;2042;47.956;9.222;2023-04-06T04:37:23;-6.00;1.00
4054;DHT22;2042;47.956;9.222;2023-04-06T04:39:48;-6.00;1.00
4054;DHT22;2042;47.956;9.222;2023-04-06T04:42:15;-5.90;1.00
4054;DHT22;2042;47.956;9.222;2023-04-06T04:44:41;-5.90;1.00
4054;DHT22;2042;47.956;9.222;2023-04-06T04:47:09;-5.90;1.00
4054;DHT22;2042;47.956;9.222;2023-04-06T04:49:36;-5.90;1.00
4054;DHT22;2042;47.956;9.222;2023-04-06T04:52:02;-5.90;1.00
4054;DHT22;2042;47.956;9.222;2023-04-06T04:54:28;-5.90;1.00
4054;DHT22;2042;47.956;9.222;2023-04-06T04:56:54;-5.90;1.00
4054;DHT22;2042;47.956;9.222;2023-04-06T04:59:20;-5.90;1.00
4054;DHT22;2042;47.956;9.222;2023-04-06T05:01:46;-5.90;1.00
4054;DHT22;2042;47.956;9.222;2023-04-06T05:04:12;-5.90;1.00
4054;DHT22;2042;47.956;9.222;2023-04-06T05:06:40;-5.90;1.00
4054;DHT22;2042;47.956;9.222;2023-04-06T05:09:06;-5.90;1.00
4054;DHT22;2042;47.956;9.222;2023-04-06T05:11:32;-5.90;1.00
4054;DHT22;2042;47.956;9.222;2023-04-06T05:13:59;-5.80;1.00
4054;DHT22;2042;47.956;9.222;2023-04-06T05:16:24;-5.60;1.00
4054;DHT22;2042;47.956;9.222;2023-04-06T05:18:50;-5.50;1.00
4054;DHT22;2042;47.956;9.222;2023-04-06T05:21:16;-5.40;1.00
4054;DHT22;2042;47.956;9.222;2023-04-06T05:23:42;-5.30;1.00
4054;DHT22;2042;47.956;9.222;2023-04-06T05:26:09;-5.20;1.00
4054;DHT22;2042;47.956;9.222;2023-04-06T05:28:36;-5.10;1.00
4054;DHT22;2042;47.956;9.222;2023-04-06T05:31:02;-4.90;1.00
4054;DHT22;2042;47.956;9.222;2023-04-06T05:33:28;-4.70;1.00
4054;DHT22;2042;47.956;9.222;2023-04-06T05:35:55;-4.50;1.00
4054;DHT22;2042;47.956;9.222;2023-04-06T05:38:24;-4.30;1.00
4054;DHT22;2042;47.956;9.222;2023-04-06T05:40:49;-4.10;1.00
4054;DHT22;2042;47.956;9.222;2023-04-06T05:43:16;-3.90;1.00
4054;DHT22;2042;47.956;9.222;2023-04-06T05:45:44;-3.70;1.00
4054;DHT22;2042;47.956;9.222;2023-04-06T05:48:11;-3.40;1.00
4054;DHT22;2042;47.956;9.222;2023-04-06T05:50:37;-3.20;1.00
4054;DHT22;2042;47.956;9.222;2023-04-06T06:23:55;0.40;11.40
4054;DHT22;2042;47.956;9.222;2023-04-06T06:26:22;1.00;13.70
4054;DHT22;2042;47.956;9.222;2023-04-06T06:28:48;1.60;14.50
4054;DHT22;2042;47.956;9.222;2023-04-06T06:31:14;2.40;14.70
4054;DHT22;2042;47.956;9.222;2023-04-06T06:33:40;3.30;12.70
4054;DHT22;2042;47.956;9.222;2023-04-06T06:36:08;4.20;6.50
4054;DHT22;2042;47.956;9.222;2023-04-06T06:59:08;10.80;1.00
4054;DHT22;2042;47.956;9.222;2023-04-06T07:01:35;11.40;1.00
4054;DHT22;2042;47.956;9.222;2023-04-06T07:04:02;11.80;1.00
4054;DHT22;2042;47.956;9.222;2023-04-06T07:06:28;12.00;1.00
4054;DHT22;2042;47.956;9.222;2023-04-06T07:08:54;12.10;1.00
4054;DHT22;2042;47.956;9.222;2023-04-06T07:11:20;12.30;1.00
4054;DHT22;2042;47.956;9.222;2023-04-06T07:20:56;12.60;1.00
4054;DHT22;2042;47.956;9.222;2023-04-06T07:23:22;12.50;1.00
4054;DHT22;2042;47.956;9.222;2023-04-06T07:25:48;12.60;1.00
4054;DHT22;2042;47.956;9.222;2023-04-06T07:28:16;12.70;1.00
4054;DHT22;2042;47.956;9.222;2023-04-06T07:30:42;13.00;1.00
4054;DHT22;2042;47.956;9.222;2023-04-06T07:33:08;13.50;1.00
4054;DHT22;2042;47.956;9.222;2023-04-06T07:35:34;14.10;1.00
4054;DHT22;2042;47.956;9.222;2023-04-06T09:21:40;22.90;1.00
4054;DHT22;2042;47.956;9.222;2023-04-06T09:24:08;22.00;1.00
4054;DHT22;2042;47.956;9.222;2023-04-06T09:26:45;21.90;1.00
4054;DHT22;2042;47.956;9.222;2023-04-06T09:29:25;22.00;1.00
4054;DHT22;2042;47.956;9.222;2023-04-06T09:32:02;21.10;1.00
4054;DHT22;2042;47.956;9.222;2023-04-06T09:34:30;20.30;1.00
4054;DHT22;2042;47.956;9.222;2023-04-06T11:12:20;24.80;1.00
4054;DHT22;2042;47.956;9.222;2023-04-06T11:14:57;24.40;1.00
4054;DHT22;2042;47.956;9.222;2023-04-06T11:17:30;24.90;1.00
4054;DHT22;2042;47.956;9.222;2023-04-06T11:19:58;24.90;1.00
4054;DHT22;2042;47.956;9.222;2023-04-06T11:22:24;24.60;1.00
4054;DHT22;2042;47.956;9.222;2023-04-06T11:24:50;24.30;1.00
4054;DHT22;2042;47.956;9.222;2023-04-06T11:27:17;24.40;1.00
4054;DHT22;2042;47.956;9.222;2023-04-06T11:29:44;25.00;1.00
4054;DHT22;2042;47.956;9.222;2023-04-06T11:32:21;24.30;1.00
4054;DHT22;2042;47.956;9.222;2023-04-06T11:34:48;21.90;1.00
4054;DHT22;2042;47.956;9.222;2023-04-06T11:37:15;21.40;1.00
4054;DHT22;2042;47.956;9.222;2023-04-06T11:39:50;22.80;1.00
4054;DHT22;2042;47.956;9.222;2023-04-06T11:42:27;24.30;1.00
4054;DHT22;2042;47.956;9.222;2023-04-06T11:44:56;24.40;1.00
4054;DHT22;2042;47.956;9.222;2023-04-06T11:47:33;24.20;1.00
4054;DHT22;2042;47.956;9.222;2023-04-06T11:50:13;25.00;1.00
4054;DHT22;2042;47.956;9.222;2023-04-06T11:52:42;25.60;1.00
4054;DHT22;2042;47.956;9.222;2023-04-06T11:55:18;24.90;1.00
4054;DHT22;2042;47.956;9.222;2023-04-06T11:57:45;24.00;1.00
4054;DHT22;2042;47.956;9.222;2023-04-06T12:00:12;23.30;1.00
4054;DHT22;2042;47.956;9.222;2023-04-06T12:02:40;21.90;1.00
4054;DHT22;2042;47.956;9.222;2023-04-06T12:05:10;20.30;1.00
4054;DHT22;2042;47.956;9.222;2023-04-06T12:07:37;19.10;1.00
4054;DHT22;2042;47.956;9.222;2023-04-06T12:10:03;18.70;1.00
4054;DHT22;2042;47.956;9.222;2023-04-06T12:12:29;17.80;1.00
4054;DHT22;2042;47.956;9.222;2023-04-06T12:14:57;17.30;1.00
4054;DHT22;2042;47.956;9.222;2023-04-06T12:17:30;17.60;1.00
4054;DHT22;2042;47.956;9.222;2023-04-06T12:19:56;17.90;1.00
4054;DHT22;2042;47.956;9.222;2023-04-06T12:22:22;18.10;1.00
4054;DHT22;2042;47.956;9.222;2023-04-06T12:24:48;18.20;1.00
4054;DHT22;2042;47.956;9.222;2023-04-06T12:27:13;18.50;1.00
4054;DHT22;2042;47.956;9.222;2023-04-06T12:29:42;19.20;1.00
4054;DHT22;2042;47.956;9.222;2023-04-06T12:32:07;19.60;1.00
4054;DHT22;2042;47.956;9.222;2023-04-06T12:34:34;18.70;1.00
4054;DHT22;2042;47.956;9.222;2023-04-06T12:37:00;17.50;1.00
4054;DHT22;2042;47.956;9.222;2023-04-06T12:39:27;16.90;1.00
4054;DHT22;2042;47.956;9.222;2023-04-06T12:41:54;17.00;1.00
4054;DHT22;2042;47.956;9.222;2023-04-06T12:44:21;17.60;1.00
4054;DHT22;2042;47.956;9.222;2023-04-06T12:46:47;18.20;1.00
4054;DHT22;2042;47.956;9.222;2023-04-06T12:49:13;18.50;1.00
4054;DHT22;2042;47.956;9.222;2023-04-06T12:51:39;18.80;1.00
4054;DHT22;2042;47.956;9.222;2023-04-06T12:54:05;18.70;1.00
4054;DHT22;2042;47.956;9.222;2023-04-06T12:56:31;19.10;1.00
4054;DHT22;2042;47.956;9.222;2023-04-06T12:58:58;19.40;1.00
4054;DHT22;2042;47.956;9.222;2023-04-06T13:01:24;19.20;1.00
4054;DHT22;2042;47.956;9.222;2023-04-06T13:03:51;18.70;1.00
4054;DHT22;2042;47.956;9.222;2023-04-06T13:06:17;18.50;1.00
4054;DHT22;2042;47.956;9.222;2023-04-06T13:08:43;18.30;1.00
4054;DHT22;2042;47.956;9.222;2023-04-06T13:21:28;19.80;1.00
4054;DHT22;2042;47.956;9.222;2023-04-06T13:23:55;20.00;1.00
4054;DHT22;2042;47.956;9.222;2023-04-06T13:26:21;19.70;1.00
4054;DHT22;2042;47.956;9.222;2023-04-06T13:28:47;19.90;1.00
4054;DHT22;2042;47.956;9.222;2023-04-06T13:31:13;20.40;1.00
4054;DHT22;2042;47.956;9.222;2023-04-06T13:33:40;20.80;1.00
4054;DHT22;2042;47.956;9.222;2023-04-06T13:36:07;20.00;1.00
4054;DHT22;2042;47.956;9.222;2023-04-06T13:38:33;20.20;1.00
4054;DHT22;2042;47.956;9.222;2023-04-06T13:40:59;20.70;1.00
4054;DHT22;2042;47.956;9.222;2023-04-06T13:43:26;20.30;1.00
4054;DHT22;2042;47.956;9.222;2023-04-06T13:45:56;20.30;1.00
4054;DHT22;2042;47.956;9.222;2023-04-06T13:48:26;20.10;1.00
4054;DHT22;2042;47.956;9.222;2023-04-06T13:50:52;19.70;1.00
4054;DHT22;2042;47.956;9.222;2023-04-06T13:53:18;19.20;1.00
4054;DHT22;2042;47.956;9.222;2023-04-06T13:55:47;18.70;1.00
4054;DHT22;2042;47.956;9.222;2023-04-06T13:58:17;18.00;1.00
4054;DHT22;2042;47.956;9.222;2023-04-06T14:00:43;17.20;1.00
4054;DHT22;2042;47.956;9.222;2023-04-06T14:03:13;17.00;1.00
4054;DHT22;2042;47.956;9.222;2023-04-06T14:05:44;16.20;1.00
4054;DHT22;2042;47.956;9.222;2023-04-06T14:08:12;15.40;1.00
4054;DHT22;2042;47.956;9.222;2023-04-06T14:10:39;15.10;1.00
4054;DHT22;2042;47.956;9.222;2023-04-06T14:13:08;15.10;1.00
4054;DHT22;2042;47.956;9.222;2023-04-06T14:15:34;15.40;1.00
4054;DHT22;2042;47.956;9.222;2023-04-06T14:18:00;15.80;1.00
4054;DHT22;2042;47.956;9.222;2023-04-06T14:20:27;15.80;1.00
4054;DHT22;2042;47.956;9.222;2023-04-06T14:22:53;15.80;1.00
4054;DHT22;2042;47.956;9.222;2023-04-06T14:25:20;15.60;1.00
4054;DHT22;2042;47.956;9.222;2023-04-06T14:27:45;15.40;1.00
4054;DHT22;2042;47.956;9.222;2023-04-06T14:30:12;15.40;1.00
4054;DHT22;2042;47.956;9.222;2023-04-06T14:32:40;15.40;1.00
4054;DHT22;2042;47.956;9.222;2023-04-06T14:35:07;15.50;1.00
4054;DHT22;2042;47.956;9.222;2023-04-06T14:37:34;15.50;1.00
4054;DHT22;2042;47.956;9.222;2023-04-06T14:40:00;15.40;1.00
4054;DHT22;2042;47.956;9.222;2023-04-06T14:42:25;15.40;1.00
4054;DHT22;2042;47.956;9.222;2023-04-06T14:44:52;15.50;1.00
4054;DHT22;2042;47.956;9.222;2023-04-06T14:47:19;15.60;1.00
4054;DHT22;2042;47.956;9.222;2023-04-06T14:49:48;15.60;1.00
4054;DHT22;2042;47.956;9.222;2023-04-06T14:52:32;15.40;1.00
4054;DHT22;2042;47.956;9.222;2023-04-06T14:54:58;14.90;1.00
4054;DHT22;2042;47.956;9.222;2023-04-06T14:57:25;14.70;1.00
4054;DHT22;2042;47.956;9.222;2023-04-06T14:59:53;14.40;1.00
4054;DHT22;2042;47.956;9.222;2023-04-06T15:02:20;14.50;1.00
4054;DHT22;2042;47.956;9.222;2023-04-06T15:04:46;14.50;1.00
4054;DHT22;2042;47.956;9.222;2023-04-06T15:07:11;14.30;1.00
4054;DHT22;2042;47.956;9.222;2023-04-06T15:09:37;13.80;1.00
4054;DHT22;2042;47.956;9.222;2023-04-06T15:12:03;13.30;1.00
4054;DHT22;2042;47.956;9.222;2023-04-06T15:14:29;13.00;1.00
4054;DHT22;2042;47.956;9.222;2023-04-06T15:16:56;12.70;1.00
4054;DHT22;2042;47.956;9.222;2023-04-06T15:19:23;12.40;1.00
4054;DHT22;2042;47.956;9.222;2023-04-06T15:21:48;12.40;1.00
4054;DHT22;2042;47.956;9.222;2023-04-06T15:24:14;12.50;1.00
4054;DHT22;2042;47.956;9.222;2023-04-06T15:26:40;12.60;1.00
4054;DHT22;2042;47.956;9.222;2023-04-06T15:29:05;12.60;1.00
4054;DHT22;2042;47.956;9.222;2023-04-06T15:31:31;12.60;1.00
4054;DHT22;2042;47.956;9.222;2023-04-06T15:33:58;12.50;1.00
4054;DHT22;2042;47.956;9.222;2023-04-06T15:36:28;12.50;1.00
4054;DHT22;2042;47.956;9.222;2023-04-06T15:38:57;12.60;1.00
4054;DHT22;2042;47.956;9.222;2023-04-06T15:41:23;12.60;1.00
4054;DHT22;2042;47.956;9.222;2023-04-06T15:43:51;12.60;1.00
4054;DHT22;2042;47.956;9.222;2023-04-06T15:46:17;12.60;1.00
4054;DHT22;2042;47.956;9.222;2023-04-06T15:48:43;12.40;1.00
4054;DHT22;2042;47.956;9.222;2023-04-06T15:51:10;12.30;1.00
4054;DHT22;2042;47.956;9.222;2023-04-06T15:53:36;12.00;1.00
4054;DHT22;2042;47.956;9.222;2023-04-06T15:56:03;11.90;1.00
4054;DHT22;2042;47.956;9.222;2023-04-06T15:58:29;11.70;1.00
4054;DHT22;2042;47.956;9.222;2023-04-06T16:00:58;11.60;1.00
4054;DHT22;2042;47.956;9.222;2023-04-06T16:03:25;11.40;1.00
4054;DHT22;2042;47.956;9.222;2023-04-06T16:05:54;11.30;1.00
4054;DHT22;2042;47.956;9.222;2023-04-06T16:08:20;11.20;1.00
4054;DHT22;2042;47.956;9.222;2023-04-06T16:10:46;11.20;1.00
4054;DHT22;2042;47.956;9.222;2023-04-06T16:13:14;11.20;1.00
4054;DHT22;2042;47.956;9.222;2023-04-06T16:15:40;11.30;1.00
4054;DHT22;2042;47.956;9.222;2023-04-06T16:18:06;11.30;1.00
4054;DHT22;2042;47.956;9.222;2023-04-06T16:20:34;11.30;1.00
4054;DHT22;2042;47.956;9.222;2023-04-06T16:23:00;11.30;1.00
4054;DHT22;2042;47.956;9.222;2023-04-06T16:25:26;11.30;1.00
4054;DHT22;2042;47.956;9.222;2023-04-06T16:27:53;11.30;1.00
4054;DHT22;2042;47.956;9.222;2023-04-06T16:30:31;11.20;1.00
4054;DHT22;2042;47.956;9.222;2023-04-06T16:32:59;11.10;1.00
4054;DHT22;2042;47.956;9.222;2023-04-06T16:35:29;10.90;1.00
4054;DHT22;2042;47.956;9.222;2023-04-06T16:37:58;10.80;1.00
4054;DHT22;2042;47.956;9.222;2023-04-06T16:40:29;10.70;1.00
4054;DHT22;2042;47.956;9.222;2023-04-06T16:42:55;10.70;1.00
4054;DHT22;2042;47.956;9.222;2023-04-06T16:45:22;10.70;1.00
